createdAt,value
2019-04-05T00:01:01.134Z,18.80
2019-04-05T00:03:27.291Z,21.20
2019-04-05T00:05:53.401Z,19.90
2019-04-05T00:08:19.429Z,19.77
2019-04-05T00:10:45.768Z,20.23
2019-04-05T00:13:11.933Z,20.40
2019-04-05T00:15:38.146Z,19.83
2019-04-05T00:18:04.464Z,20.47
2019-04-05T00:20:30.482Z,19.70
2019-04-05T00:22:56.506Z,21.43
2019-04-05T00:25:22.553Z,19.93
2019-04-05T00:27:48.661Z,19.43
2019-04-05T00:30:14.950Z,20.03
2019-04-05T00:32:41.014Z,19.00
2019-04-05T00:35:07.314Z,19.70
2019-04-05T00:37:33.622Z,21.90
2019-04-05T00:39:59.719Z,20.93
2019-04-05T00:42:25.733Z,20.60
2019-04-05T00:44:51.765Z,20.60
2019-04-05T00:47:17.977Z,20.93
2019-04-05T00:49:43.976Z,20.17
2019-04-05T00:52:10.128Z,19.97
2019-04-05T00:54:36.107Z,19.23
2019-04-05T00:57:02.209Z,20.70
2019-04-05T00:59:28.269Z,20.60
2019-04-05T01:01:54.337Z,19.13
2019-04-05T01:04:20.487Z,20.77
2019-04-05T01:06:46.557Z,19.23
2019-04-05T01:09:12.624Z,20.77
2019-04-05T01:11:38.718Z,21.17
2019-04-05T01:14:04.794Z,19.93
2019-04-05T01:16:31.004Z,20.30
2019-04-05T01:18:57.010Z,20.50
2019-04-05T01:21:23.872Z,23.33
2019-04-05T01:23:52.255Z,21.60
2019-04-05T01:26:19.380Z,20.43
2019-04-05T01:28:45.721Z,20.50
2019-04-05T01:31:11.814Z,21.67
2019-04-05T01:33:39.884Z,21.60
2019-04-05T01:36:05.957Z,20.67
2019-04-05T01:38:31.964Z,23.33
2019-04-05T01:40:58.089Z,22.20
2019-04-05T01:43:24.525Z,20.73
2019-04-05T01:45:53.864Z,21.77
2019-04-05T01:48:18.650Z,22.60
2019-04-05T01:50:44.703Z,23.27
2019-04-05T01:53:10.941Z,20.80
2019-04-05T01:55:36.953Z,22.23
2019-04-05T01:58:03.005Z,23.37
2019-04-05T02:00:29.015Z,21.53
2019-04-05T02:02:55.136Z,22.47
2019-04-05T02:05:21.288Z,21.83
2019-04-05T02:07:47.641Z,22.60
2019-04-05T02:10:15.563Z,22.97
2019-04-05T02:12:41.625Z,23.73
2019-04-05T02:15:08.394Z,24.20
2019-04-05T02:17:36.113Z,21.53
2019-04-05T02:20:04.891Z,23.07
2019-04-05T02:22:30.984Z,24.33
2019-04-05T02:24:57.017Z,23.10
2019-04-05T02:27:23.180Z,23.20
2019-04-05T02:29:49.202Z,23.10
2019-04-05T02:32:15.387Z,22.50
2019-04-05T02:34:41.443Z,22.97
2019-04-05T02:37:07.457Z,22.53
2019-04-05T02:39:33.548Z,23.87
2019-04-05T02:41:59.914Z,22.40
2019-04-05T02:44:27.290Z,22.63
2019-04-05T02:46:53.529Z,22.17
2019-04-05T02:49:23.323Z,23.67
2019-04-05T02:51:50.487Z,22.80
2019-04-05T02:54:17.649Z,24.13
2019-04-05T02:56:44.377Z,23.03
2019-04-05T02:59:10.858Z,24.17
2019-04-05T03:01:37.287Z,25.53
2019-04-05T03:04:03.534Z,23.73
2019-04-05T03:06:29.745Z,24.43
2019-04-05T03:08:56.449Z,24.27
2019-04-05T03:11:26.290Z,24.37
2019-04-05T03:13:55.717Z,24.87
2019-04-05T03:16:39.588Z,23.30
2019-04-05T03:18:59.921Z,23.23
2019-04-05T03:21:28.121Z,23.00
2019-04-05T03:23:57.499Z,23.10
2019-04-05T03:26:27.316Z,24.97
2019-04-05T03:28:57.124Z,24.03
2019-04-05T03:31:25.048Z,25.10
2019-04-05T03:33:51.593Z,25.27
2019-04-05T03:36:18.241Z,25.33
2019-04-05T03:38:45.030Z,25.50
2019-04-05T03:41:11.198Z,25.17
2019-04-05T03:43:38.226Z,26.13
2019-04-05T03:46:04.645Z,23.43
2019-04-05T03:48:31.731Z,24.33
2019-04-05T03:50:57.730Z,24.57
2019-04-05T03:53:23.826Z,24.50
2019-04-05T03:55:49.962Z,25.47
2019-04-05T03:58:15.969Z,25.50
2019-04-05T04:00:42.493Z,25.60
2019-04-05T04:03:09.032Z,25.47
2019-04-05T04:05:35.056Z,26.20
2019-04-05T04:08:01.109Z,25.43
2019-04-05T04:10:28.062Z,27.90
2019-04-05T04:12:54.585Z,25.80
2019-04-05T04:15:21.496Z,26.40
2019-04-05T04:17:47.922Z,23.90
2019-04-05T04:20:34.552Z,26.57
2019-04-05T04:23:00.897Z,25.03
2019-04-05T04:25:27.065Z,25.23
2019-04-05T04:27:53.393Z,31.73
2019-04-05T04:30:19.658Z,35.27
2019-04-05T04:32:45.849Z,26.90
2019-04-05T04:35:12.244Z,26.33
2019-04-05T04:37:38.634Z,26.60
2019-04-05T04:40:05.808Z,27.53
2019-04-05T04:42:32.585Z,24.43
2019-04-05T04:45:11.316Z,27.03
2019-04-05T04:47:27.561Z,25.73
2019-04-05T04:49:55.593Z,27.23
2019-04-05T04:52:21.962Z,26.70
2019-04-05T04:54:51.493Z,26.70
2019-04-05T04:57:20.300Z,27.47
2019-04-05T04:59:49.169Z,26.70
2019-04-05T05:02:18.446Z,26.80
2019-04-05T05:04:50.454Z,26.40
2019-04-05T05:07:19.694Z,27.17
2019-04-05T05:09:49.146Z,27.00
2019-04-05T05:12:15.395Z,27.13
2019-04-05T05:14:41.763Z,26.57
2019-04-05T05:17:08.176Z,27.47
2019-04-05T05:19:34.255Z,27.27
2019-04-05T05:22:00.716Z,26.80
2019-04-05T05:24:27.262Z,26.23
2019-04-05T05:26:54.473Z,26.97
2019-04-05T05:29:20.867Z,26.30
2019-04-05T05:31:47.863Z,29.67
2019-04-05T05:34:14.089Z,27.73
2019-04-05T05:36:40.127Z,25.60
2019-04-05T05:39:06.561Z,28.17
2019-04-05T05:41:34.822Z,27.43
2019-04-05T05:44:01.037Z,30.67
2019-04-05T05:46:27.326Z,26.83
2019-04-05T05:48:53.614Z,28.40
2019-04-05T05:51:21.669Z,27.57
2019-04-05T05:53:51.261Z,29.27
2019-04-05T05:56:17.358Z,26.77
2019-04-05T05:58:44.326Z,26.93
2019-04-05T06:01:10.698Z,28.33
2019-04-05T06:03:36.749Z,27.97
2019-04-05T06:06:04.715Z,27.43
2019-04-05T06:08:31.255Z,27.73
2019-04-05T06:10:57.420Z,28.53
2019-04-05T06:13:23.564Z,28.13
2019-04-05T06:15:49.937Z,25.90
2019-04-05T06:18:16.269Z,26.70
2019-04-05T06:20:42.496Z,29.07
2019-04-05T06:23:08.701Z,28.03
2019-04-05T06:25:35.162Z,27.63
2019-04-05T06:28:01.609Z,28.90
2019-04-05T06:30:28.903Z,27.73
2019-04-05T06:32:55.124Z,26.60
2019-04-05T06:35:21.486Z,28.60
2019-04-05T06:37:47.530Z,29.67
2019-04-05T06:40:13.535Z,27.07
2019-04-05T06:42:40.084Z,28.33
2019-04-05T06:45:06.572Z,30.73
2019-04-05T06:47:32.788Z,26.73
2019-04-05T06:49:58.824Z,30.00
2019-04-05T06:52:24.886Z,27.87
2019-04-05T06:55:36.664Z,28.03
2019-04-05T06:58:03.191Z,28.23
2019-04-05T07:00:29.599Z,28.57
2019-04-05T07:02:57.351Z,28.20
2019-04-05T07:05:23.511Z,27.63
2019-04-05T07:07:49.895Z,25.37
2019-04-05T07:10:16.064Z,26.90
2019-04-05T07:12:42.108Z,28.27
2019-04-05T07:15:08.313Z,28.00
2019-04-05T07:17:34.427Z,35.53
2019-04-05T07:20:01.154Z,29.13
2019-04-05T07:22:37.237Z,27.33
2019-04-05T07:24:55.067Z,27.90
2019-04-05T07:27:21.126Z,29.40
2019-04-05T07:29:47.116Z,31.80
2019-04-05T07:32:13.132Z,30.57
2019-04-05T07:34:39.324Z,33.03
2019-04-05T07:37:05.657Z,28.50
2019-04-05T07:39:31.692Z,28.60
2019-04-05T07:41:58.069Z,28.40
2019-04-05T07:44:24.078Z,28.83
2019-04-05T07:46:50.130Z,28.13
2019-04-05T07:49:16.285Z,27.93
2019-04-05T07:51:42.374Z,28.87
2019-04-05T07:54:08.579Z,27.30
2019-04-05T07:56:34.732Z,28.93
2019-04-05T07:59:00.750Z,28.30
2019-04-05T08:01:27.007Z,28.30
2019-04-05T08:03:53.176Z,28.97
2019-04-05T08:06:19.361Z,30.27
2019-04-05T08:08:52.053Z,28.20
2019-04-05T08:11:19.255Z,29.70
2019-04-05T08:13:46.287Z,31.53
2019-04-05T08:16:12.429Z,28.63
2019-04-05T08:18:38.542Z,27.43
2019-04-05T08:21:04.567Z,28.97
2019-04-05T08:23:30.648Z,28.80
2019-04-05T08:25:56.680Z,28.70
2019-04-05T08:28:22.766Z,27.63
2019-04-05T08:30:48.770Z,28.70
2019-04-05T08:33:14.852Z,27.60
2019-04-05T08:35:41.081Z,27.10
2019-04-05T08:38:07.177Z,29.50
2019-04-05T08:40:33.181Z,28.33
2019-04-05T08:42:59.223Z,27.17
2019-04-05T08:45:25.448Z,26.27
2019-04-05T08:47:51.508Z,26.90
2019-04-05T08:50:17.680Z,27.43
2019-04-05T08:52:43.697Z,28.63
2019-04-05T08:55:10.046Z,28.80
2019-04-05T08:57:36.066Z,26.77
2019-04-05T09:00:05.754Z,26.73
2019-04-05T09:02:31.828Z,26.30
2019-04-05T09:04:57.944Z,28.27
2019-04-05T09:07:23.965Z,26.17
2019-04-05T09:09:50.064Z,27.63
2019-04-05T09:12:16.426Z,25.87
2019-04-05T09:14:42.565Z,26.80
2019-04-05T09:17:08.956Z,25.77
2019-04-05T09:19:35.261Z,27.87
2019-04-05T09:22:01.625Z,26.80
2019-04-05T09:24:27.783Z,27.50
2019-04-05T09:26:54.390Z,27.67
2019-04-05T09:29:20.780Z,25.30
2019-04-05T09:31:47.020Z,26.07
2019-04-05T09:34:13.225Z,24.87
2019-04-05T09:36:39.442Z,26.97
2019-04-05T09:39:07.743Z,28.00
2019-04-05T09:41:33.824Z,26.17
2019-04-05T09:43:59.848Z,27.37
2019-04-05T09:46:25.886Z,28.30
2019-04-05T09:48:52.013Z,29.57
2019-04-05T09:51:18.082Z,25.37
2019-04-05T09:53:44.231Z,26.87
2019-04-05T09:56:10.306Z,28.20
2019-04-05T09:58:36.516Z,26.33
2019-04-05T10:01:03.229Z,25.47
2019-04-05T10:03:29.646Z,24.73
2019-04-05T10:05:55.860Z,24.03
2019-04-05T10:08:22.776Z,27.23
2019-04-05T10:10:49.037Z,25.40
2019-04-05T10:13:15.094Z,25.07
2019-04-05T10:15:41.224Z,24.40
2019-04-05T10:18:07.243Z,24.80
2019-04-05T10:20:33.574Z,26.17
2019-04-05T10:22:59.620Z,27.53
2019-04-05T10:25:25.702Z,25.73
2019-04-05T10:27:52.159Z,26.50
2019-04-05T10:30:18.698Z,26.87
2019-04-05T10:32:46.192Z,25.20
2019-04-05T10:35:12.896Z,24.40
2019-04-05T10:37:38.958Z,25.57
2019-04-05T10:40:06.167Z,23.57
2019-04-05T10:42:33.957Z,25.30
2019-04-05T10:45:00.363Z,32.27
2019-04-05T10:47:26.932Z,27.53
2019-04-05T10:50:02.800Z,38.97
2019-04-05T10:52:20.933Z,29.80
2019-04-05T10:54:47.069Z,31.03
2019-04-05T10:57:13.325Z,67.60
2019-04-05T10:59:40.005Z,45.80
2019-04-05T11:02:06.461Z,29.80
2019-04-05T11:04:32.597Z,25.57
2019-04-05T11:06:59.350Z,23.90
2019-04-05T11:09:27.503Z,24.43
2019-04-05T11:11:53.677Z,24.67
2019-04-05T11:14:19.780Z,24.07
2019-04-05T11:16:57.805Z,23.67
2019-04-05T11:19:13.825Z,23.77
2019-04-05T11:21:39.934Z,23.63
2019-04-05T11:24:06.096Z,22.27
2019-04-05T11:26:32.333Z,24.60
2019-04-05T11:28:58.333Z,24.90
2019-04-05T11:31:24.460Z,23.80
2019-04-05T11:33:50.807Z,26.50
2019-04-05T11:36:17.137Z,24.90
2019-04-05T11:38:44.047Z,24.40
2019-04-05T11:41:10.218Z,22.70
2019-04-05T11:43:38.322Z,24.97
2019-04-05T11:46:04.619Z,23.80
2019-04-05T11:48:31.012Z,24.50
2019-04-05T11:50:57.319Z,22.07
2019-04-05T11:53:23.401Z,24.03
2019-04-05T11:55:49.762Z,21.73
2019-04-05T11:58:16.518Z,23.93
2019-04-05T12:00:44.752Z,28.13
2019-04-05T12:03:15.346Z,26.10
2019-04-05T12:05:41.361Z,24.70
2019-04-05T12:08:07.372Z,23.60
2019-04-05T12:10:33.545Z,27.20
2019-04-05T12:12:59.685Z,26.33
2019-04-05T12:15:25.840Z,26.10
2019-04-05T12:17:51.852Z,25.57
2019-04-05T12:20:18.065Z,26.63
2019-04-05T12:22:44.107Z,25.20
2019-04-05T12:25:12.174Z,25.50
2019-04-05T12:27:38.409Z,25.47
2019-04-05T12:30:05.861Z,26.03
2019-04-05T12:32:34.441Z,23.37
2019-04-05T12:34:59.858Z,24.93
2019-04-05T12:37:25.998Z,24.03
2019-04-05T12:39:51.995Z,25.60
2019-04-05T12:42:18.040Z,26.23
2019-04-05T12:44:45.108Z,27.37
2019-04-05T12:47:15.485Z,27.13
2019-04-05T12:49:40.082Z,24.97
2019-04-05T12:52:06.179Z,26.13
2019-04-05T12:54:32.301Z,25.47
2019-04-05T12:57:05.491Z,25.27
2019-04-05T12:59:31.583Z,29.60
2019-04-05T13:01:59.646Z,33.10
2019-04-05T13:04:25.590Z,28.00
2019-04-05T13:06:52.811Z,37.40
2019-04-05T13:09:21.404Z,27.67
2019-04-05T13:11:47.764Z,28.00
2019-04-05T13:14:13.944Z,27.73
2019-04-05T13:16:39.972Z,26.17
2019-04-05T13:19:06.126Z,30.53
2019-04-05T13:21:33.239Z,24.83
2019-04-05T13:23:59.695Z,22.27
2019-04-05T13:26:26.498Z,23.47
2019-04-05T13:28:52.766Z,22.30
2019-04-05T13:31:18.991Z,22.00
2019-04-05T13:33:45.128Z,21.10
2019-04-05T13:36:11.337Z,21.20
2019-04-05T13:38:37.468Z,22.50
2019-04-05T13:41:03.828Z,22.57
2019-04-05T13:43:31.982Z,22.13
2019-04-05T13:45:57.857Z,22.20
2019-04-05T13:48:24.015Z,22.50
2019-04-05T13:50:50.142Z,23.97
2019-04-05T13:53:16.590Z,22.17
2019-04-05T13:55:42.945Z,23.53
2019-04-05T13:58:11.324Z,22.07
2019-04-05T14:00:36.948Z,22.13
2019-04-05T14:03:03.064Z,21.97
2019-04-05T14:05:29.116Z,25.03
2019-04-05T14:08:09.176Z,25.77
2019-04-05T14:10:23.122Z,23.33
2019-04-05T14:12:49.206Z,24.17
2019-04-05T14:15:15.413Z,23.83
2019-04-05T14:17:44.088Z,24.83
2019-04-05T14:20:10.209Z,25.37
2019-04-05T14:22:36.219Z,25.10
2019-04-05T14:25:05.253Z,24.93
2019-04-05T14:27:34.936Z,26.80
2019-04-05T14:30:00.590Z,23.87
2019-04-05T14:32:27.301Z,26.40
2019-04-05T14:34:54.761Z,25.77
2019-04-05T14:37:24.816Z,24.87
2019-04-05T14:39:49.076Z,26.93
2019-04-05T14:42:15.719Z,25.57
2019-04-05T14:44:41.895Z,26.70
2019-04-05T14:47:08.088Z,24.43
2019-04-05T14:49:34.219Z,25.80
2019-04-05T14:52:01.038Z,25.07
2019-04-05T14:54:30.189Z,26.37
2019-04-05T14:56:57.424Z,26.40
2019-04-05T14:59:23.788Z,24.13
2019-04-05T15:01:49.948Z,25.37
2019-04-05T15:04:16.007Z,26.00
2019-04-05T15:06:42.215Z,26.40
2019-04-05T15:09:08.291Z,26.43
2019-04-05T15:11:34.546Z,25.67
2019-04-05T15:14:01.044Z,26.17
2019-04-05T15:16:27.411Z,24.33
2019-04-05T15:18:53.549Z,26.67
2019-04-05T15:21:19.686Z,27.47
2019-04-05T15:23:46.344Z,25.80
2019-04-05T15:26:12.496Z,28.23
2019-04-05T15:28:39.096Z,26.00
2019-04-05T15:31:05.273Z,26.20
2019-04-05T15:33:31.268Z,25.00
2019-04-05T15:36:00.257Z,24.97
2019-04-05T15:38:25.556Z,24.47
2019-04-05T15:40:51.798Z,26.07
2019-04-05T15:43:17.821Z,25.00
2019-04-05T15:45:44.126Z,24.23
2019-04-05T15:48:10.233Z,26.37
2019-04-05T15:50:36.310Z,26.23
2019-04-05T15:53:03.020Z,23.60
2019-04-05T15:55:29.296Z,27.40
2019-04-05T15:57:55.377Z,25.20
2019-04-05T16:00:37.796Z,25.33
2019-04-05T16:03:03.896Z,26.57
2019-04-05T16:05:29.899Z,26.10
2019-04-05T16:07:55.916Z,25.90
2019-04-05T16:10:22.093Z,26.87
2019-04-05T16:12:48.357Z,24.70
2019-04-05T16:15:14.421Z,28.83
2019-04-05T16:17:40.578Z,26.63
2019-04-05T16:20:10.192Z,26.80
2019-04-05T16:22:36.271Z,28.33
2019-04-05T16:25:05.061Z,28.73
2019-04-05T16:27:31.122Z,29.30
2019-04-05T16:29:57.664Z,28.53
2019-04-05T16:32:23.869Z,30.40
2019-04-05T16:34:50.159Z,28.10
2019-04-05T16:37:16.348Z,27.57
2019-04-05T16:39:42.655Z,28.57
2019-04-05T16:42:10.344Z,28.40
2019-04-05T16:44:36.544Z,28.13
2019-04-05T16:47:02.588Z,28.20
2019-04-05T16:49:28.636Z,28.33
2019-04-05T16:51:54.771Z,25.50
2019-04-05T16:54:20.976Z,27.20
2019-04-05T16:56:46.989Z,28.93
2019-04-05T16:59:13.189Z,29.10
2019-04-05T17:01:39.442Z,30.70
2019-04-05T17:04:05.543Z,30.20
2019-04-05T17:06:31.670Z,30.70
2019-04-05T17:08:57.680Z,37.30
2019-04-05T17:11:23.744Z,31.97
2019-04-05T17:13:49.856Z,38.00
2019-04-05T17:16:16.075Z,36.10
2019-04-05T17:18:42.402Z,39.90
2019-04-05T17:21:08.713Z,40.63
2019-04-05T17:23:34.923Z,38.50
2019-04-05T17:26:01.331Z,37.67
2019-04-05T17:28:27.595Z,38.67
2019-04-05T17:30:53.609Z,40.33
2019-04-05T17:33:19.723Z,60.37
2019-04-05T17:35:45.913Z,38.07
2019-04-05T17:38:11.954Z,32.13
2019-04-05T17:40:38.088Z,33.80
2019-04-05T17:43:04.632Z,33.00
2019-04-05T17:45:30.884Z,34.70
2019-04-05T17:47:57.630Z,32.27
2019-04-05T17:50:29.005Z,30.90
2019-04-05T17:52:55.053Z,31.00
2019-04-05T17:55:21.406Z,32.87
2019-04-05T17:57:47.753Z,33.20
2019-04-05T18:00:16.002Z,35.47
2019-04-05T18:02:42.708Z,33.33
2019-04-05T18:05:09.931Z,38.30
2019-04-05T18:07:36.048Z,36.67
2019-04-05T18:10:03.159Z,43.30
2019-04-05T18:12:29.364Z,36.97
2019-04-05T18:14:55.462Z,40.60
2019-04-05T18:17:29.147Z,83.27
2019-04-05T18:19:55.252Z,36.07
2019-04-05T18:22:21.366Z,48.13
2019-04-05T18:24:47.448Z,53.60
2019-04-05T18:27:13.539Z,44.40
2019-04-05T18:29:39.602Z,36.80
2019-04-05T18:32:05.644Z,33.97
2019-04-05T18:34:31.690Z,40.07
2019-04-05T18:36:57.901Z,40.87
2019-04-05T18:39:23.928Z,38.27
2019-04-05T18:41:50.067Z,35.60
2019-04-05T18:44:16.056Z,34.90
2019-04-05T18:46:42.097Z,56.53
2019-04-05T18:49:08.126Z,50.23
2019-04-05T18:51:34.223Z,43.93
2019-04-05T18:54:00.352Z,56.30
2019-04-05T18:56:26.473Z,47.87
2019-04-05T18:58:52.665Z,37.30
2019-04-05T19:01:18.837Z,37.90
2019-04-05T19:03:44.968Z,47.90
2019-04-05T19:06:10.945Z,42.87
2019-04-05T19:08:39.720Z,40.17
2019-04-05T19:11:04.904Z,41.40
2019-04-05T19:13:31.334Z,37.13
2019-04-05T19:15:57.383Z,39.00
2019-04-05T19:18:23.635Z,39.70
2019-04-05T19:20:49.744Z,37.40
2019-04-05T19:23:15.761Z,38.20
2019-04-05T19:25:41.789Z,37.47
2019-04-05T19:28:07.773Z,37.90
2019-04-05T19:50:17.971Z,44.00
2019-04-05T19:52:43.973Z,42.33
2019-04-05T19:55:10.024Z,42.87
2019-04-05T19:57:36.328Z,45.10
2019-04-05T20:00:07.085Z,48.03
2019-04-05T20:02:33.059Z,50.30
2019-04-05T20:04:59.170Z,55.37
2019-04-05T20:07:25.201Z,56.57
2019-04-05T20:09:51.432Z,60.07
2019-04-05T20:12:17.560Z,59.30
2019-04-05T20:14:45.538Z,58.80
2019-04-05T20:17:11.608Z,63.40
2019-04-05T20:19:37.660Z,63.47
2019-04-05T20:22:04.516Z,60.60
2019-04-05T20:24:30.512Z,62.20
2019-04-05T20:26:56.559Z,64.53
2019-04-05T20:29:22.536Z,66.67
2019-04-05T20:31:48.920Z,65.67
2019-04-05T20:34:14.972Z,66.87
2019-04-05T20:36:41.011Z,68.90
2019-04-05T20:39:07.176Z,70.43
2019-04-05T20:41:33.248Z,64.30
2019-04-05T20:43:59.295Z,66.00
2019-04-05T20:46:25.298Z,63.93
2019-04-05T20:48:51.290Z,66.17
2019-04-05T20:51:17.464Z,66.07
2019-04-05T20:53:43.559Z,63.90
2019-04-05T20:56:09.547Z,66.10
2019-04-05T20:58:35.564Z,67.13
2019-04-05T21:01:01.617Z,64.30
2019-04-05T21:03:27.608Z,64.67
2019-04-05T21:05:53.625Z,68.50
2019-04-05T21:08:19.614Z,64.17
2019-04-05T21:10:45.694Z,65.63
2019-04-05T21:13:11.938Z,64.23
2019-04-05T21:15:38.277Z,70.93
2019-04-05T21:18:04.360Z,80.57
2019-04-05T21:20:30.487Z,78.93
2019-04-05T21:22:56.561Z,71.33
2019-04-05T21:25:22.678Z,81.20
2019-04-05T21:27:48.876Z,85.40
2019-04-05T21:30:14.975Z,75.27
2019-04-05T21:32:41.065Z,66.13
2019-04-05T21:35:07.250Z,67.37
2019-04-05T21:37:33.247Z,65.93
2019-04-05T21:39:59.266Z,63.17
2019-04-05T21:42:25.288Z,64.07
2019-04-05T21:44:51.277Z,62.03
2019-04-05T21:47:17.323Z,67.90
2019-04-05T21:49:43.381Z,63.10
2019-04-05T21:52:10.495Z,64.37
2019-04-05T21:54:46.986Z,62.30
2019-04-05T21:57:04.645Z,63.97
2019-04-05T21:59:30.638Z,64.07
2019-04-05T22:01:56.687Z,65.13
2019-04-05T22:04:22.706Z,62.57
2019-04-05T22:06:48.722Z,65.50
2019-04-05T22:09:15.544Z,70.60
2019-04-05T22:11:42.946Z,60.73
2019-04-05T22:14:11.292Z,64.60
2019-04-05T22:16:38.650Z,66.60
2019-04-05T22:19:06.633Z,66.77
2019-04-05T22:21:33.974Z,67.67
2019-04-05T22:24:00.260Z,63.47
2019-04-05T22:26:26.372Z,62.30
2019-04-05T22:28:52.357Z,63.40
2019-04-05T22:31:18.374Z,61.60
2019-04-05T22:33:44.352Z,66.17
2019-04-05T22:36:10.338Z,69.20
2019-04-05T22:38:36.362Z,64.87
2019-04-05T22:41:03.401Z,62.83
2019-04-05T22:43:29.422Z,61.97
2019-04-05T22:45:55.996Z,59.47
2019-04-05T22:48:22.016Z,58.03
2019-04-05T22:50:50.127Z,60.90
2019-04-05T22:53:16.213Z,62.33
2019-04-05T22:55:42.287Z,63.20
2019-04-05T22:58:08.297Z,57.63
2019-04-05T23:00:34.605Z,53.73
2019-04-05T23:03:00.687Z,49.10
2019-04-05T23:05:26.732Z,47.70
2019-04-05T23:07:52.795Z,48.30
2019-04-05T23:10:18.848Z,43.67
2019-04-05T23:12:44.835Z,46.37
2019-04-05T23:15:11.120Z,44.37
2019-04-05T23:17:37.154Z,47.03
2019-04-05T23:20:04.413Z,49.30
2019-04-05T23:22:30.412Z,45.03
2019-04-05T23:24:56.427Z,45.80
2019-04-05T23:27:22.406Z,46.40
2019-04-05T23:29:48.484Z,44.60
2019-04-05T23:32:14.573Z,46.33
2019-04-05T23:34:40.558Z,43.80
2019-04-05T23:37:06.571Z,46.33
2019-04-05T23:39:32.559Z,46.37
2019-04-05T23:41:58.844Z,42.90
2019-04-05T23:44:24.876Z,42.93
2019-04-05T23:46:52.690Z,44.73
2019-04-05T23:49:18.885Z,43.40
2019-04-05T23:51:44.976Z,44.90
2019-04-05T23:54:10.995Z,45.40
2019-04-05T23:56:37.314Z,42.97
2019-04-05T23:59:03.351Z,45.60
